Time;durP1;ratioP1;P1;durP2;ratioP2;P2;SDS_P1;SDS_P2;PMS_P1;PMS_P2;Temp;Humidity;BMP_temperature;BMP_pressure;BME280_temperature;BME280_humidity;BME280_pressure;Samples;Min_cycle;Max_cycle;Signal;HPM_P1;HPM_P2
2022/11/02 00:00:44;;;;;;;25.80;14.57;;;14.80;99.90;;;;;;4776005;30;20039;-93
2022/11/02 00:03:14;;;;;;;22.83;14.45;;;14.80;99.90;;;;;;4761532;30;20039;-93
2022/11/02 00:05:40;;;;;;;27.95;13.80;;;14.80;99.90;;;;;;4775903;30;20047;-94
2022/11/02 00:08:07;;;;;;;23.75;13.02;;;14.80;99.90;;;;;;4775966;30;20039;-93
2022/11/02 00:10:34;;;;;;;21.70;12.48;;;14.80;99.90;;;;;;4762178;30;20055;-93
2022/11/02 00:13:00;;;;;;;20.48;11.98;;;14.70;99.90;;;;;;4775663;30;20122;-93
2022/11/02 00:15:36;;;;;;;30.27;15.05;;;14.60;99.90;;;;;;4775704;30;20038;-92
2022/11/02 00:18:07;;;;;;;26.27;15.27;;;14.60;99.90;;;;;;4765778;30;20043;-94
2022/11/02 00:20:38;;;;;;;26.80;15.52;;;14.60;99.90;;;;;;4778750;30;20031;-94
2022/11/02 00:23:13;;;;;;;31.52;16.27;;;14.60;99.90;;;;;;4763646;30;20521;-93
2022/11/02 00:25:46;;;;;;;29.95;16.42;;;14.60;99.90;;;;;;4778755;30;20063;-93
2022/11/02 00:28:22;;;;;;;28.42;14.82;;;14.60;99.90;;;;;;4779492;30;20034;-94
2022/11/02 00:30:49;;;;;;;29.50;15.73;;;14.60;99.90;;;;;;4775669;29;20045;-93
2022/11/02 00:33:19;;;;;;;28.00;14.90;;;14.60;99.90;;;;;;4819118;29;20050;-93
2022/11/02 00:35:46;;;;;;;29.88;15.68;;;14.50;99.90;;;;;;4833688;29;20030;-93
2022/11/02 00:38:12;;;;;;;27.35;14.27;;;14.50;99.90;;;;;;4819195;29;20070;-93
2022/11/02 00:40:43;;;;;;;24.52;12.57;;;14.40;99.90;;;;;;4834284;29;20115;-93
2022/11/02 00:43:10;;;;;;;23.30;13.60;;;14.40;99.90;;;;;;4819181;29;20054;-93
2022/11/02 00:45:38;;;;;;;23.80;13.43;;;14.30;99.90;;;;;;4818048;29;20037;-93
2022/11/02 00:48:05;;;;;;;24.90;12.02;;;14.30;99.90;;;;;;4833686;29;20030;-93
2022/11/02 00:50:32;;;;;;;26.90;13.02;;;14.30;99.90;;;;;;4818083;29;20026;-93
2022/11/02 00:52:59;;;;;;;25.40;13.50;;;14.20;99.90;;;;;;4818564;29;20041;-93
2022/11/02 00:55:26;;;;;;;25.38;12.65;;;14.20;99.90;;;;;;4818721;29;20048;-93
2022/11/02 00:57:58;;;;;;;26.98;13.80;;;14.10;99.90;;;;;;4832672;29;20030;-93
2022/11/02 01:00:24;;;;;;;37.22;15.52;;;14.10;99.90;;;;;;4833336;29;20074;-94
2022/11/02 01:02:51;;;;;;;77.55;19.13;;;14.10;99.90;;;;;;4817966;29;20030;-93
2022/11/02 01:05:18;;;;;;;71.03;20.52;;;14.00;99.90;;;;;;4818576;29;20038;-94
2022/11/02 01:07:46;;;;;;;108.15;23.02;;;14.00;99.90;;;;;;4819073;29;20522;-93
2022/11/02 01:10:13;;;;;;;46.28;18.73;;;13.90;99.90;;;;;;4819655;29;20037;-92
2022/11/02 01:12:40;;;;;;;44.85;19.25;;;14.00;99.90;;;;;;4835189;29;20046;-93
2022/11/02 01:15:10;;;;;;;61.97;21.25;;;14.00;99.90;;;;;;4819500;29;20030;-93
2022/11/02 01:17:41;;;;;;;64.70;20.35;;;14.10;99.90;;;;;;4834575;29;20030;-93
2022/11/02 01:20:08;;;;;;;85.72;24.05;;;14.00;99.90;;;;;;4835027;29;20105;-93
2022/11/02 01:22:35;;;;;;;118.57;27.38;;;14.00;99.90;;;;;;4823317;29;20407;-93
2022/11/02 01:25:02;;;;;;;264.73;32.65;;;14.00;99.90;;;;;;4824070;29;20048;-94
2022/11/02 01:27:29;;;;;;;280.80;31.48;;;14.00;99.90;;;;;;4824855;29;20026;-93
2022/11/02 01:29:58;;;;;;;177.85;32.42;;;14.00;99.90;;;;;;4837429;29;20065;-93
2022/11/02 01:32:29;;;;;;;108.28;24.75;;;14.10;99.90;;;;;;4838406;29;20026;-92
2022/11/02 01:34:56;;;;;;;44.42;19.48;;;14.10;99.90;;;;;;4823557;29;20038;-93
2022/11/02 01:37:23;;;;;;;33.55;17.02;;;14.10;99.90;;;;;;4840355;29;20034;-92
2022/11/02 01:39:50;;;;;;;40.42;18.45;;;14.00;99.90;;;;;;4819620;29;20054;-94
2022/11/02 01:42:22;;;;;;;51.55;20.50;;;14.00;99.90;;;;;;4820163;29;20033;-93
2022/11/02 01:44:49;;;;;;;52.35;20.48;;;13.90;99.90;;;;;;4834155;29;20042;-94
2022/11/02 01:47:43;;;;;;;44.35;17.30;;;13.90;99.90;;;;;;4820157;29;20065;-93
2022/11/02 01:50:20;;;;;;;46.50;19.23;;;13.80;99.90;;;;;;4818688;29;20045;-93
2022/11/02 01:52:47;;;;;;;52.95;19.65;;;13.80;99.90;;;;;;4818499;29;20125;-93
2022/11/02 01:55:26;;;;;;;45.78;19.05;;;13.80;99.90;;;;;;4818086;29;20102;-93
2022/11/02 01:58:06;;;;;;;61.33;22.55;;;13.80;99.90;;;;;;4817810;29;20034;-94
2022/11/02 02:00:33;;;;;;;51.45;19.77;;;13.70;99.90;;;;;;4833561;29;20030;-93
2022/11/02 02:03:17;;;;;;;44.28;18.50;;;13.70;99.90;;;;;;4817885;29;20046;-93
2022/11/02 02:05:57;;;;;;;50.53;19.50;;;13.70;99.90;;;;;;4832896;29;20476;-93
2022/11/02 02:08:26;;;;;;;45.97;19.42;;;13.80;99.90;;;;;;4833690;29;20034;-94
2022/11/02 02:10:57;;;;;;;36.40;17.55;;;13.70;99.90;;;;;;4833623;29;20361;-93
2022/11/02 02:13:27;;;;;;;45.20;18.55;;;13.70;99.90;;;;;;4818588;29;20030;-93
2022/11/02 02:16:09;;;;;;;48.63;20.67;;;13.70;99.90;;;;;;4832683;29;20033;-93
2022/11/02 02:18:52;;;;;;;50.50;21.42;;;13.60;99.90;;;;;;4818047;29;20037;-94
2022/11/02 02:22:07;;;;;;;54.87;22.93;;;13.70;99.90;;;;;;4832455;29;20041;-93
2022/11/02 02:25:16;;;;;;;51.17;20.83;;;13.60;99.90;;;;;;4763146;30;20059;-94
2022/11/02 02:28:03;;;;;;;53.33;20.48;;;13.70;99.90;;;;;;4777575;29;20106;-94
2022/11/02 02:30:42;;;;;;;45.67;20.02;;;13.70;99.90;;;;;;4763550;30;20471;-93
2022/11/02 02:33:45;;;;;;;42.38;19.40;;;13.70;99.90;;;;;;4763852;30;20031;-93
2022/11/02 02:36:48;;;;;;;53.30;20.00;;;13.70;99.90;;;;;;4739071;30;20111;-94
2022/11/02 02:39:37;;;;;;;47.10;20.67;;;13.60;99.90;;;;;;4705404;30;20084;-93
2022/11/02 02:42:14;;;;;;;46.45;19.80;;;13.60;99.90;;;;;;4706432;30;20041;-93
2022/11/02 02:44:54;;;;;;;47.22;19.08;;;13.50;99.90;;;;;;4706336;30;20041;-93
2022/11/02 02:47:26;;;;;;;49.58;20.05;;;13.50;99.90;;;;;;4706562;30;20408;-93
2022/11/02 02:50:14;;;;;;;44.53;19.85;;;13.40;99.90;;;;;;4706554;30;20045;-93
2022/11/02 02:52:43;;;;;;;49.08;20.65;;;13.30;99.90;;;;;;4707441;30;20536;-93
2022/11/02 02:55:17;;;;;;;41.63;20.02;;;13.30;99.90;;;;;;4705889;30;20079;-94
2022/11/02 02:57:45;;;;;;;42.03;19.45;;;13.20;99.90;;;;;;4705179;30;20041;-93
2022/11/02 03:00:17;;;;;;;43.88;19.90;;;13.20;99.90;;;;;;4711596;30;20495;-92
2022/11/02 03:02:59;;;;;;;41.85;18.80;;;13.10;99.90;;;;;;4740900;30;20048;-94
2022/11/02 03:05:37;;;;;;;41.38;18.55;;;13.00;99.90;;;;;;4740296;30;20419;-93
2022/11/02 03:08:12;;;;;;;37.95;18.60;;;13.00;99.90;;;;;;4739516;30;20038;-93
2022/11/02 03:10:49;;;;;;;32.78;16.98;;;12.90;99.90;;;;;;4743758;29;20044;-94
2022/11/02 03:13:55;;;;;;;35.92;18.10;;;12.90;99.90;;;;;;4813115;29;20034;-93
2022/11/02 03:16:37;;;;;;;30.92;16.17;;;12.90;99.90;;;;;;4785674;29;20106;-93
2022/11/02 03:19:20;;;;;;;35.60;17.15;;;12.80;99.90;;;;;;4812130;29;20058;-93
2022/11/02 03:22:09;;;;;;;29.30;15.32;;;12.80;99.90;;;;;;4811791;29;20121;-94
2022/11/02 03:25:07;;;;;;;29.98;16.63;;;12.70;99.90;;;;;;4811769;29;20047;-92
2022/11/02 03:27:49;;;;;;;36.63;17.55;;;12.70;99.90;;;;;;4812280;29;20046;-93
2022/11/02 03:30:21;;;;;;;31.88;17.85;;;12.70;99.90;;;;;;4812234;29;20034;-93
2022/11/02 03:33:07;;;;;;;29.30;16.42;;;12.70;99.90;;;;;;4827065;29;20034;-93
2022/11/02 03:35:41;;;;;;;35.20;16.08;;;12.70;99.90;;;;;;4812541;29;20030;-93
2022/11/02 03:38:23;;;;;;;30.92;15.23;;;12.70;99.90;;;;;;4815203;29;20106;-92
2022/11/02 03:40:55;;;;;;;29.80;15.32;;;12.70;99.90;;;;;;4815490;29;20459;-94
2022/11/02 03:43:24;;;;;;;25.23;15.55;;;12.70;99.90;;;;;;4832454;29;20091;-93
2022/11/02 03:46:01;;;;;;;29.35;15.25;;;12.60;99.90;;;;;;4816135;29;20090;-93
2022/11/02 03:48:45;;;;;;;27.10;15.60;;;12.70;99.90;;;;;;4829303;29;20034;-93
2022/11/02 03:51:20;;;;;;;37.75;18.23;;;12.70;99.90;;;;;;4829085;29;20053;-93
2022/11/02 03:53:51;;;;;;;53.55;19.48;;;12.80;99.90;;;;;;4829020;29;20094;-94
2022/11/02 03:56:46;;;;;;;50.00;21.08;;;12.80;99.90;;;;;;4828588;29;20038;-93
2022/11/02 03:59:14;;;;;;;64.30;22.40;;;12.80;99.90;;;;;;4829521;29;20053;-93
2022/11/02 04:01:50;;;;;;;62.97;23.40;;;12.80;99.90;;;;;;4814281;29;20204;-93
2022/11/02 04:04:21;;;;;;;57.17;23.30;;;12.80;99.90;;;;;;4813654;29;20045;-93
2022/11/02 04:06:48;;;;;;;44.30;21.10;;;12.80;99.90;;;;;;4811953;29;20058;-93
2022/11/02 04:09:15;;;;;;;42.17;19.63;;;12.80;99.90;;;;;;4812020;29;20038;-93
2022/11/02 04:14:40;;;;;;;54.63;22.00;;;12.70;99.90;;;;;;4826618;29;20494;-92
2022/11/02 04:20:06;;;;;;;160.38;27.00;;;12.60;99.90;;;;;;4832316;29;20030;-93
2022/11/02 04:25:22;;;;;;;170.20;30.08;;;12.60;99.90;;;;;;4835661;29;20037;-93
2022/11/02 04:28:21;;;;;;;69.55;25.15;;;12.60;99.90;;;;;;4810806;29;20061;-93
2022/11/02 04:30:54;;;;;;;49.38;23.98;;;12.70;99.90;;;;;;4834482;29;20034;-94
2022/11/02 04:33:33;;;;;;;49.03;23.13;;;12.70;99.90;;;;;;4819138;29;20488;-93
2022/11/02 04:36:14;;;;;;;48.53;23.43;;;12.70;99.90;;;;;;4835741;29;20458;-93
2022/11/02 04:38:41;;;;;;;37.37;21.27;;;12.70;99.90;;;;;;4818789;29;20094;-93
2022/11/02 04:44:14;;;;;;;35.15;19.15;;;12.70;99.90;;;;;;4835682;29;20132;-93
2022/11/02 04:46:45;;;;;;;34.85;17.38;;;12.70;99.90;;;;;;4818203;29;20495;-92
2022/11/02 04:49:14;;;;;;;29.17;16.35;;;12.70;99.90;;;;;;4818828;29;20042;-92
2022/11/02 04:51:42;;;;;;;28.08;16.10;;;12.60;99.90;;;;;;4817495;29;20033;-93
2022/11/02 04:54:09;;;;;;;30.52;16.80;;;12.60;99.90;;;;;;4833864;29;20030;-93
2022/11/02 04:56:37;;;;;;;24.83;16.17;;;12.60;99.90;;;;;;4819982;29;20503;-94
2022/11/02 04:59:05;;;;;;;26.60;14.80;;;12.60;99.90;;;;;;4836141;29;20037;-92
2022/11/02 05:01:35;;;;;;;24.65;15.77;;;12.60;99.90;;;;;;4816851;29;20412;-93
2022/11/02 05:04:04;;;;;;;22.55;14.43;;;12.60;99.90;;;;;;4831919;29;20045;-93
2022/11/02 05:06:39;;;;;;;26.50;14.32;;;12.60;99.90;;;;;;4815157;29;20030;-93
2022/11/02 05:09:09;;;;;;;22.98;13.80;;;12.70;99.90;;;;;;4830245;29;20117;-92
2022/11/02 05:11:40;;;;;;;25.65;13.82;;;12.70;99.90;;;;;;4829444;29;20042;-93
2022/11/02 05:14:07;;;;;;;24.15;14.55;;;12.70;99.90;;;;;;4829290;29;20045;-93
2022/11/02 05:16:33;;;;;;;21.90;13.80;;;12.70;99.90;;;;;;4814647;29;20030;-92
2022/11/02 05:19:02;;;;;;;22.60;13.00;;;12.70;99.90;;;;;;4829912;29;20491;-94
2022/11/02 05:21:28;;;;;;;19.17;12.82;;;12.70;99.90;;;;;;4815594;29;20537;-92
2022/11/02 05:23:55;;;;;;;22.50;11.88;;;12.70;99.90;;;;;;4814092;29;20041;-92
2022/11/02 05:26:23;;;;;;;17.55;11.23;;;12.70;99.90;;;;;;4814174;29;20112;-93
2022/11/02 05:28:51;;;;;;;20.58;12.00;;;12.70;99.90;;;;;;4829120;29;20057;-92
2022/11/02 05:31:19;;;;;;;19.13;10.48;;;12.70;99.90;;;;;;4813390;29;20026;-93
2022/11/02 05:33:47;;;;;;;17.83;10.85;;;12.70;99.90;;;;;;4829757;29;20045;-92
2022/11/02 05:36:18;;;;;;;16.45;10.48;;;12.70;99.90;;;;;;4814770;29;20022;-92
2022/11/02 05:38:55;;;;;;;14.02;10.57;;;12.70;99.90;;;;;;4829697;29;20535;-93
2022/11/02 05:41:22;;;;;;;;;;;12.70;99.90;;;;;;4829697;29;20034;-92
2022/11/02 05:43:51;;;;;;;15.60;9.63;;;12.70;99.90;;;;;;4814493;29;19931;-93
2022/11/02 05:46:19;;;;;;;16.45;9.75;;;12.70;99.90;;;;;;4814597;29;20026;-93
2022/11/02 05:48:46;;;;;;;15.23;9.57;;;12.80;99.90;;;;;;4814412;29;20033;-92
2022/11/02 05:51:13;;;;;;;15.25;9.00;;;12.80;99.90;;;;;;4829224;29;20038;-93
2022/11/02 05:53:40;;;;;;;15.15;10.25;;;12.90;99.90;;;;;;4814034;29;20030;-93
2022/11/02 05:56:09;;;;;;;17.85;10.55;;;13.10;99.90;;;;;;4828549;29;20026;-93
2022/11/02 05:58:36;;;;;;;15.23;9.68;;;13.20;99.90;;;;;;4813576;29;20059;-92
2022/11/02 06:01:05;;;;;;;13.88;10.10;;;13.30;99.90;;;;;;4813786;29;20459;-93
2022/11/02 06:03:35;;;;;;;16.40;10.20;;;13.50;99.90;;;;;;4817138;29;20128;-94
2022/11/02 06:06:12;;;;;;;15.23;10.07;;;13.60;99.90;;;;;;4858787;24;20103;-93
2022/11/02 06:09:24;;;;;;;;;;;;;;;;;;;;;
2022/11/02 06:18:30;;;;;;;18.67;12.70;;;15.40;99.90;;;;;;4990854;23;20078;-92
2022/11/02 06:21:01;;;;;;;19.27;12.75;;;15.70;99.90;;;;;;4927476;29;20027;-93
2022/11/02 06:23:28;;;;;;;21.33;12.20;;;15.80;99.90;;;;;;4923135;23;20097;-94
2022/11/02 06:26:30;;;;;;;20.00;14.00;;;16.00;99.90;;;;;;4951040;29;20117;-93
2022/11/02 06:34:18;;;;;;;78.35;19.95;;;15.70;99.90;;;;;;5174196;23;20118;-93
2022/11/02 06:36:44;;;;;;;98.05;16.83;;;15.60;99.90;;;;;;4932286;29;20028;-93
2022/11/02 06:39:20;;;;;;;131.10;25.00;;;15.40;99.90;;;;;;4926077;29;20042;-93
2022/11/02 06:41:47;;;;;;;163.63;20.85;;;15.20;99.90;;;;;;4923254;29;20114;-93
2022/11/02 06:46:44;;;;;;;166.82;26.05;;;15.10;99.90;;;;;;4884371;29;20065;-93
2022/11/02 06:49:19;;;;;;;147.45;26.33;;;15.20;99.90;;;;;;4883575;29;20036;-93
2022/11/02 06:51:49;;;;;;;236.82;33.03;;;15.20;99.90;;;;;;4886152;29;20469;-93
2022/11/02 06:54:19;;;;;;;230.93;32.97;;;15.20;99.90;;;;;;4863077;29;20044;-93
2022/11/02 06:56:48;;;;;;;271.70;35.58;;;15.20;99.90;;;;;;4874934;29;20033;-92
2022/11/02 06:59:18;;;;;;;235.52;33.63;;;15.40;99.90;;;;;;4877101;29;20026;-92
2022/11/02 07:01:52;;;;;;;229.88;34.58;;;15.50;99.90;;;;;;4877763;29;20081;-93
2022/11/02 07:04:24;;;;;;;231.27;35.85;;;15.60;99.90;;;;;;4876294;29;20052;-93
2022/11/02 07:06:51;;;;;;;197.25;34.85;;;15.70;99.90;;;;;;4875853;29;20029;-93
2022/11/02 07:09:39;;;;;;;206.48;36.05;;;15.80;99.90;;;;;;4856818;29;20033;-93
2022/11/02 07:12:06;;;;;;;293.27;41.45;;;15.90;99.90;;;;;;4862840;29;20472;-93
2022/11/02 07:14:36;;;;;;;301.63;44.38;;;16.00;99.90;;;;;;4832274;29;20113;-94
2022/11/02 07:17:02;;;;;;;259.23;44.28;;;16.00;99.90;;;;;;4830976;29;20071;-92
2022/11/02 07:19:29;;;;;;;286.30;47.45;;;16.20;99.90;;;;;;4830688;29;20029;-93
2022/11/02 07:21:56;;;;;;;285.52;49.22;;;16.30;99.90;;;;;;4859063;29;20040;-93
2022/11/02 07:24:23;;;;;;;316.65;55.75;;;16.40;99.90;;;;;;4830655;29;20034;-94
2022/11/02 07:26:50;;;;;;;273.35;51.13;;;16.60;99.90;;;;;;4831446;29;20033;-93
2022/11/02 07:29:23;;;;;;;240.80;51.63;;;16.60;99.90;;;;;;4831376;29;20091;-93
2022/11/02 07:31:49;;;;;;;231.70;56.78;;;16.70;99.90;;;;;;4860627;29;20053;-93
2022/11/02 07:34:16;;;;;;;225.02;58.67;;;16.90;99.90;;;;;;4830363;29;20029;-93
2022/11/02 07:36:43;;;;;;;203.55;57.92;;;16.90;99.90;;;;;;4856275;29;20057;-92
2022/11/02 07:39:19;;;;;;;178.57;59.70;;;17.00;99.90;;;;;;4845968;29;20026;-93
2022/11/02 07:41:46;;;;;;;155.98;54.58;;;17.00;99.90;;;;;;4861278;29;20456;-93
2022/11/02 07:44:12;;;;;;;155.13;56.80;;;17.20;99.90;;;;;;4830211;29;20069;-94
2022/11/02 07:46:57;;;;;;;128.50;50.53;;;17.30;99.90;;;;;;4863652;29;20060;-93
2022/11/02 07:49:24;;;;;;;119.47;48.83;;;17.30;99.90;;;;;;4861122;29;20068;-93
2022/11/02 07:51:51;;;;;;;121.35;47.88;;;17.40;99.90;;;;;;4829888;29;20028;-93
2022/11/02 07:54:17;;;;;;;123.57;47.08;;;17.50;99.90;;;;;;4831092;29;20098;-94
2022/11/02 07:56:44;;;;;;;110.28;46.05;;;17.60;99.90;;;;;;4864466;29;20021;-92
2022/11/02 07:59:14;;;;;;;99.82;42.22;;;17.60;99.90;;;;;;4833479;29;20030;-92
2022/11/02 08:01:41;;;;;;;89.30;40.42;;;17.80;99.90;;;;;;4833393;29;20496;-93
2022/11/02 08:04:08;;;;;;;93.20;42.35;;;17.90;99.90;;;;;;4834052;29;20049;-92
2022/11/02 08:06:37;;;;;;;95.15;43.15;;;18.00;99.90;;;;;;4868703;29;20502;-92
2022/11/02 08:09:07;;;;;;;78.82;37.53;;;18.10;99.90;;;;;;4863757;29;20045;-94
2022/11/02 08:11:37;;;;;;;87.90;39.95;;;18.00;99.90;;;;;;4833205;29;20026;-93
2022/11/02 08:14:03;;;;;;;76.72;35.58;;;18.20;99.90;;;;;;4864817;29;20120;-92
2022/11/02 08:16:30;;;;;;;74.85;34.05;;;18.40;99.90;;;;;;4833184;29;20079;-93
2022/11/02 08:18:58;;;;;;;74.03;34.25;;;18.60;99.90;;;;;;4833491;29;20030;-92
2022/11/02 08:21:28;;;;;;;66.03;33.50;;;18.80;99.90;;;;;;4863688;29;20040;-94
2022/11/02 08:23:55;;;;;;;68.88;34.92;;;18.80;99.90;;;;;;4863689;29;20052;-93
2022/11/02 08:26:22;;;;;;;63.90;33.05;;;19.00;99.90;;;;;;4833026;29;20036;-94
2022/11/02 08:28:49;;;;;;;71.57;33.92;;;19.10;99.90;;;;;;4848188;29;20112;-92
2022/11/02 08:31:17;;;;;;;65.47;34.90;;;19.00;99.90;;;;;;4833025;29;20523;-92
2022/11/02 08:33:45;;;;;;;58.22;31.50;;;19.10;99.90;;;;;;4834098;29;20116;-93
2022/11/02 08:36:15;;;;;;;59.78;31.15;;;19.30;99.90;;;;;;4834781;29;20058;-93
2022/11/02 08:38:44;;;;;;;56.88;28.85;;;19.20;99.90;;;;;;4836386;29;20061;-92
2022/11/02 08:41:22;;;;;;;59.00;30.60;;;19.20;99.90;;;;;;4833319;29;20483;-92
2022/11/02 08:43:58;;;;;;;51.92;28.45;;;19.30;99.90;;;;;;4835950;29;20042;-94
2022/11/02 08:47:12;;;;;;;;;;;;;;;;;;;;;
2022/11/02 09:06:02;;;;;;;;;;;;;;;;;;;;;
2022/11/02 09:14:22;;;;;;;41.70;23.35;;;20.50;99.90;;;;;;4912049;29;20127;-92
2022/11/02 09:16:49;;;;;;;38.63;22.65;;;20.70;99.90;;;;;;4887648;29;20042;-92
2022/11/02 09:19:25;;;;;;;33.78;21.48;;;20.80;99.90;;;;;;4887689;29;20043;-91
2022/11/02 09:21:55;;;;;;;44.05;25.02;;;20.90;99.90;;;;;;4888796;29;20363;-93
2022/11/02 09:24:21;;;;;;;34.00;23.25;;;20.80;99.90;;;;;;4903391;29;20486;-93
2022/11/02 09:27:24;;;;;;;43.10;23.55;;;20.90;99.90;;;;;;4893527;29;20489;-94
2022/11/02 09:29:50;;;;;;;36.50;20.77;;;21.20;99.90;;;;;;4831926;29;20030;-93
2022/11/02 09:32:23;;;;;;;34.00;22.35;;;21.40;99.90;;;;;;4819386;29;20109;-94
2022/11/02 09:34:52;;;;;;;36.03;22.42;;;21.40;99.90;;;;;;5208380;23;20016;-93
2022/11/02 09:44:18;;;;;;;32.40;21.83;;;21.60;99.90;;;;;;5773455;23;20056;-93
2022/11/02 09:46:46;;;;;;;36.30;20.33;;;21.60;99.90;;;;;;4893169;29;20032;-93
2022/11/02 09:49:23;;;;;;;27.10;19.50;;;21.70;99.90;;;;;;4888955;29;20120;-93
2022/11/02 09:52:08;;;;;;;31.60;21.15;;;21.70;99.90;;;;;;4887879;29;20032;-93
2022/11/02 09:54:44;;;;;;;32.78;19.73;;;21.90;99.90;;;;;;4872599;29;20509;-92
2022/11/02 09:57:38;;;;;;;28.58;20.02;;;22.00;99.90;;;;;;4872859;29;20529;-93
2022/11/02 10:00:11;;;;;;;30.92;19.05;;;21.90;99.90;;;;;;4887044;29;20051;-93
2022/11/02 10:02:56;;;;;;;24.27;18.92;;;21.90;99.90;;;;;;4872425;29;20037;-93
2022/11/02 10:05:52;;;;;;;25.45;19.48;;;21.90;99.90;;;;;;4889404;29;20036;-93
2022/11/02 10:08:32;;;;;;;27.95;19.70;;;21.90;99.90;;;;;;4874447;29;20033;-93
2022/11/02 10:11:19;;;;;;;25.15;19.08;;;22.00;99.90;;;;;;4889126;29;20033;-93
2022/11/02 10:14:02;;;;;;;24.80;19.77;;;22.10;99.90;;;;;;4891544;29;20029;-93
2022/11/02 10:16:35;;;;;;;30.35;19.58;;;22.00;99.90;;;;;;4879229;29;20065;-93
2022/11/02 10:19:04;;;;;;;22.23;17.35;;;22.10;99.90;;;;;;4892190;29;20037;-93
2022/11/02 10:21:38;;;;;;;22.20;17.67;;;22.00;99.90;;;;;;4872931;29;20036;-93
2022/11/02 10:24:19;;;;;;;24.38;17.63;;;22.10;99.90;;;;;;4889408;29;20060;-93
2022/11/02 10:26:48;;;;;;;22.80;17.40;;;22.20;99.90;;;;;;4892372;29;20475;-94
2022/11/02 10:29:21;;;;;;;26.02;18.13;;;22.10;99.90;;;;;;4876229;29;20391;-94
2022/11/02 10:31:58;;;;;;;22.55;16.70;;;22.00;99.90;;;;;;4891832;29;20028;-94
2022/11/02 10:34:36;;;;;;;18.55;16.63;;;22.00;99.90;;;;;;4891236;29;20032;-94
2022/11/02 10:37:24;;;;;;;22.83;16.98;;;22.10;99.90;;;;;;4891064;29;20037;-93
2022/11/02 10:40:24;;;;;;;20.55;17.08;;;22.30;99.90;;;;;;4892535;29;20036;-93
2022/11/02 10:43:25;;;;;;;20.55;18.15;;;22.50;99.90;;;;;;4892291;29;20029;-93
2022/11/02 12:58:54;;;;;;;22.63;17.80;;;22.80;99.90;;;;;;4961485;23;20517;-93
2022/11/02 13:32:32;;;;;;;16.80;15.00;;;22.20;99.90;;;;;;5589787;23;20039;-93
2022/11/02 13:38:19;;;;;;;;;;;;;;;;;;;;;
2022/11/02 13:54:07;;;;;;;18.27;16.23;;;21.90;99.90;;;;;;5529529;23;20040;-92
2022/11/02 13:56:36;;;;;;;20.75;16.20;;;22.00;99.90;;;;;;4900671;29;20118;-91
2022/11/02 13:59:07;;;;;;;17.10;15.48;;;22.00;99.90;;;;;;4906374;29;20553;-92
2022/11/02 14:01:39;;;;;;;16.50;15.10;;;21.80;99.90;;;;;;4903351;29;20032;-92
2022/11/02 14:04:11;;;;;;;17.15;15.40;;;21.70;99.90;;;;;;4903739;29;20499;-92
2022/11/02 14:07:01;;;;;;;25.85;15.63;;;21.60;99.90;;;;;;5077040;27;1734834;-92
2022/11/02 14:09:55;;;;;;;20.45;15.77;;;21.50;99.90;;;;;;5095139;28;20038;-92
2022/11/02 14:12:22;;;;;;;24.08;14.57;;;21.50;99.90;;;;;;4997320;28;20033;-92
2022/11/02 14:15:13;;;;;;;17.60;14.85;;;21.40;99.90;;;;;;4996945;28;20046;-92
2022/11/02 14:18:00;;;;;;;18.98;14.52;;;21.30;99.90;;;;;;4977786;28;20042;-91
2022/11/02 14:20:45;;;;;;;16.05;14.38;;;21.20;99.90;;;;;;4978524;28;20040;-91
2022/11/02 14:23:30;;;;;;;;;;;21.20;99.90;;;;;;5010879;28;20038;-92
2022/11/02 14:25:57;;;;;;;15.90;14.20;;;21.20;99.90;;;;;;4977289;28;19984;-93
2022/11/02 14:28:30;;;;;;;16.63;14.90;;;21.10;99.90;;;;;;4993604;28;20030;-92
2022/11/02 14:31:03;;;;;;;19.33;14.57;;;21.00;99.90;;;;;;4977362;28;20078;-93
2022/11/02 14:33:48;;;;;;;19.75;14.20;;;20.80;99.90;;;;;;4977652;28;20069;-92
2022/11/02 14:36:18;;;;;;;14.93;12.18;;;20.70;99.90;;;;;;4977049;28;20070;-92
2022/11/02 14:38:57;;;;;;;14.75;13.25;;;20.60;99.90;;;;;;4977908;28;20125;-93
2022/11/02 14:41:46;;;;;;;22.75;13.05;;;20.50;99.90;;;;;;4977290;28;20030;-93
2022/11/02 14:44:25;;;;;;;17.80;12.85;;;20.40;99.90;;;;;;4980765;28;20545;-93
2022/11/02 14:47:10;;;;;;;17.88;12.88;;;20.40;99.90;;;;;;5009908;28;20066;-92
2022/11/02 14:49:46;;;;;;;21.67;12.80;;;20.30;99.90;;;;;;5061811;28;20044;-93
2022/11/02 14:52:13;;;;;;;20.15;12.25;;;20.20;99.90;;;;;;5085203;28;20043;-92
2022/11/02 14:54:50;;;;;;;19.05;12.85;;;20.20;99.90;;;;;;5073210;28;20052;-91
2022/11/02 14:57:28;;;;;;;17.60;13.25;;;20.10;99.90;;;;;;5072677;28;20054;-92
2022/11/02 14:59:59;;;;;;;19.08;14.15;;;20.00;99.90;;;;;;5072755;28;20115;-92
2022/11/02 15:02:52;;;;;;;23.73;14.68;;;19.90;99.90;;;;;;5072531;28;20055;-91
2022/11/02 15:05:38;;;;;;;21.52;13.75;;;19.80;99.90;;;;;;5028721;28;20045;-92
2022/11/02 15:08:24;;;;;;;26.23;14.15;;;19.70;99.90;;;;;;5012229;28;20026;-93
2022/11/02 15:11:32;;;;;;;21.00;14.20;;;19.60;99.90;;;;;;5012648;28;20434;-92
2022/11/02 15:13:59;;;;;;;24.08;13.65;;;19.60;99.90;;;;;;5022495;28;20034;-90
2022/11/02 15:16:38;;;;;;;23.88;15.10;;;19.60;99.90;;;;;;5008835;28;20038;-91
2022/11/02 15:19:36;;;;;;;25.90;15.55;;;19.40;99.90;;;;;;4999258;28;20396;-92
2022/11/02 15:22:39;;;;;;;22.15;14.95;;;19.40;99.90;;;;;;4999148;28;20191;-89
2022/11/02 15:25:08;;;;;;;23.90;14.55;;;19.30;99.90;;;;;;4998750;28;20034;-89
2022/11/02 15:27:38;;;;;;;27.50;15.85;;;19.20;99.90;;;;;;4998768;28;20120;-90
2022/11/02 15:30:07;;;;;;;20.63;14.50;;;19.20;99.90;;;;;;4999111;28;20050;-92
2022/11/02 15:32:38;;;;;;;25.98;16.38;;;19.10;99.90;;;;;;4998775;28;20030;-90
2022/11/02 15:35:28;;;;;;;23.13;14.77;;;19.00;99.90;;;;;;4999846;28;20057;-92
2022/11/02 15:37:59;;;;;;;23.25;15.60;;;19.00;99.90;;;;;;4999273;28;20093;-92
2022/11/02 15:40:48;;;;;;;23.67;17.02;;;18.90;99.90;;;;;;5016094;28;20103;-92
2022/11/02 15:43:47;;;;;;;30.83;17.05;;;18.80;99.90;;;;;;5058776;28;20182;-91
2022/11/02 15:46:29;;;;;;;28.80;18.15;;;18.70;99.90;;;;;;5059090;28;20033;-92
2022/11/02 15:48:59;;;;;;;34.70;19.15;;;18.70;99.90;;;;;;5075302;28;20060;-92
2022/11/02 15:51:35;;;;;;;31.35;19.27;;;18.60;99.90;;;;;;5058639;28;20449;-93
2022/11/02 15:54:11;;;;;;;34.40;18.67;;;18.60;99.90;;;;;;5058760;28;20031;-92
2022/11/02 15:56:53;;;;;;;39.17;20.02;;;18.50;99.90;;;;;;5075553;28;20025;-92
2022/11/02 15:59:45;;;;;;;33.53;21.67;;;18.40;99.90;;;;;;5075059;28;20032;-93
2022/11/02 16:02:31;;;;;;;38.27;21.47;;;18.30;99.90;;;;;;5075176;28;20056;-94
2022/11/02 16:05:05;;;;;;;39.95;24.17;;;18.30;99.90;;;;;;5062932;28;20068;-95
2022/11/02 16:07:34;;;;;;;34.55;21.08;;;18.30;99.90;;;;;;5060234;28;20028;-94
2022/11/02 16:10:46;;;;;;;36.60;22.27;;;18.30;99.90;;;;;;5083433;28;20100;-94
2022/11/02 16:13:21;;;;;;;39.03;21.92;;;18.20;99.90;;;;;;5064968;22;20104;-92
2022/11/02 16:15:49;;;;;;;35.42;21.02;;;18.20;99.90;;;;;;4997694;28;20026;-94
2022/11/02 16:18:28;;;;;;;37.92;22.17;;;18.20;99.90;;;;;;4998098;28;20026;-94
2022/11/02 16:21:21;;;;;;;36.50;22.13;;;18.20;99.90;;;;;;4998307;28;20026;-93
2022/11/02 16:23:56;;;;;;;38.75;22.80;;;18.10;99.90;;;;;;4997088;28;20053;-91
2022/11/02 16:26:28;;;;;;;38.60;21.67;;;18.10;99.90;;;;;;4995989;28;20519;-95
2022/11/02 16:28:58;;;;;;;45.13;23.17;;;18.10;99.90;;;;;;5011215;28;20117;-94
2022/11/02 16:31:34;;;;;;;41.45;24.63;;;18.10;99.90;;;;;;4995573;28;20030;-93
2022/11/02 16:34:28;;;;;;;46.92;25.50;;;18.10;99.90;;;;;;5011974;28;20034;-92
2022/11/02 16:36:57;;;;;;;43.60;23.88;;;18.00;99.90;;;;;;5000810;28;20026;-94
2022/11/02 16:39:36;;;;;;;43.30;25.27;;;18.00;99.90;;;;;;4995573;28;20064;-93
2022/11/02 16:42:14;;;;;;;41.92;25.55;;;18.00;99.90;;;;;;5012579;28;20034;-94
2022/11/02 16:44:52;;;;;;;42.53;23.90;;;18.00;99.90;;;;;;4996752;28;20121;-94
2022/11/02 16:47:52;;;;;;;44.67;25.80;;;17.90;99.90;;;;;;4998973;28;20034;-94
2022/11/02 16:50:24;;;;;;;43.00;25.15;;;17.90;99.90;;;;;;4999926;28;20034;-94
2022/11/02 16:52:57;;;;;;;54.17;28.58;;;17.90;99.90;;;;;;5015108;28;20180;-95
2022/11/02 16:55:46;;;;;;;55.08;29.35;;;17.90;99.90;;;;;;5000807;28;20026;-94
2022/11/02 16:58:22;;;;;;;53.42;28.55;;;17.90;99.90;;;;;;5004000;28;20033;-95
2022/11/02 17:03:44;;;;;;;58.08;31.55;;;17.80;99.90;;;;;;5023235;28;20045;-94
2022/11/02 17:06:12;;;;;;;53.05;30.60;;;17.70;99.90;;;;;;4947953;29;20051;-94
2022/11/02 17:08:56;;;;;;;60.58;33.22;;;17.70;99.90;;;;;;4929984;29;20121;-93